Time;durP1;ratioP1;P1;durP2;ratioP2;P2;SDS_P1;SDS_P2;PMS_P1;PMS_P2;Temp;Humidity;BMP_temperature;BMP_pressure;BME280_temperature;BME280_humidity;BME280_pressure;Samples;Min_cycle;Max_cycle;Signal;HPM_P1;HPM_P2
2022/08/26 00:02:17;;;;;;;6.07;2.30;;;;;;;;;;5026472;28;20045;-61
2022/08/26 00:04:43;;;;;;;9.57;2.35;;;;;;;;;;5032881;28;20045;-56
2022/08/26 00:07:10;;;;;;;10.27;2.38;;;;;;;;;;5026549;28;20045;-59
2022/08/26 00:09:38;;;;;;;7.80;2.40;;;;;;;;;;5032481;28;20107;-62
2022/08/26 00:12:05;;;;;;;4.43;2.25;;;;;;;;;;5019511;28;20136;-59
2022/08/26 00:14:33;;;;;;;7.40;2.50;;;;;;;;;;5012796;28;20053;-63
2022/08/26 00:16:59;;;;;;;5.25;2.05;;;;;;;;;;5007494;28;20045;-61
2022/08/26 00:19:28;;;;;;;6.68;2.38;;;;;;;;;;5030535;28;20049;-61
2022/08/26 00:21:55;;;;;;;7.00;2.50;;;;;;;;;;5007367;28;20048;-63
2022/08/26 00:24:22;;;;;;;6.38;2.28;;;;;;;;;;5012584;28;20132;-62
2022/08/26 00:26:49;;;;;;;7.07;2.30;;;;;;;;;;5007825;28;20076;-59
2022/08/26 00:29:16;;;;;;;10.15;2.72;;;;;;;;;;5031788;28;20053;-64
2022/08/26 00:31:44;;;;;;;5.60;1.77;;;;;;;;;;5019810;28;20103;-64
2022/08/26 00:34:11;;;;;;;13.55;3.00;;;;;;;;;;5007719;28;20107;-63
2022/08/26 00:36:38;;;;;;;4.05;1.80;;;;;;;;;;5012558;28;20061;-61
2022/08/26 00:39:07;;;;;;;8.70;1.88;;;;;;;;;;5005007;28;20057;-63
2022/08/26 00:41:38;;;;;;;6.78;1.85;;;;;;;;;;5012169;28;20073;-64
2022/08/26 00:44:05;;;;;;;7.82;2.20;;;;;;;;;;5019871;28;20123;-61
2022/08/26 00:46:33;;;;;;;9.10;2.15;;;;;;;;;;5031795;28;20134;-63
2022/08/26 00:49:11;;;;;;;8.30;2.10;;;;;;;;;;5013907;28;20073;-57
2022/08/26 00:51:42;;;;;;;5.68;2.10;;;;;;;;;;5009664;28;20057;-63
2022/08/26 00:54:11;;;;;;;6.07;2.22;;;;;;;;;;5017461;28;20049;-61
2022/08/26 00:56:40;;;;;;;4.53;1.60;;;;;;;;;;5030025;28;20040;-64
2022/08/26 00:59:10;;;;;;;5.43;1.98;;;;;;;;;;5017241;28;20073;-59
2022/08/26 01:01:37;;;;;;;3.45;1.58;;;;;;;;;;5011593;28;20053;-63
2022/08/26 01:04:09;;;;;;;5.23;2.37;;;;;;;;;;5018412;28;20060;-62
2022/08/26 01:06:36;;;;;;;6.30;1.88;;;;;;;;;;5031494;28;20060;-64
2022/08/26 01:09:03;;;;;;;3.60;1.55;;;;;;;;;;5010562;28;20049;-64
2022/08/26 01:11:31;;;;;;;7.47;1.60;;;;;;;;;;5012134;28;20068;-63
2022/08/26 01:14:00;;;;;;;7.75;2.08;;;;;;;;;;5005982;28;20064;-65
2022/08/26 01:16:27;;;;;;;5.10;1.63;;;;;;;;;;5011561;28;20041;-61
2022/08/26 01:18:55;;;;;;;5.18;1.65;;;;;;;;;;5005446;28;20041;-61
2022/08/26 01:21:27;;;;;;;9.07;2.13;;;;;;;;;;5011141;28;20057;-64
2022/08/26 01:23:55;;;;;;;4.68;1.65;;;;;;;;;;5011287;28;20053;-63
2022/08/26 01:26:24;;;;;;;3.90;1.58;;;;;;;;;;5024040;28;20080;-60
2022/08/26 01:28:54;;;;;;;3.67;1.60;;;;;;;;;;5010090;28;20053;-61
2022/08/26 01:31:23;;;;;;;7.90;2.22;;;;;;;;;;5004942;28;20118;-62
2022/08/26 01:33:55;;;;;;;4.57;1.40;;;;;;;;;;5010657;28;20121;-63
2022/08/26 01:36:22;;;;;;;7.28;2.17;;;;;;;;;;5022378;28;20057;-60
2022/08/26 01:38:49;;;;;;;8.27;2.03;;;;;;;;;;5030395;28;20057;-59
2022/08/26 01:41:17;;;;;;;4.72;1.35;;;;;;;;;;5013063;28;20081;-64
2022/08/26 01:43:45;;;;;;;4.53;1.75;;;;;;;;;;5020542;28;20049;-62
2022/08/26 01:46:12;;;;;;;3.15;1.35;;;;;;;;;;5013991;28;20050;-61
2022/08/26 01:48:39;;;;;;;6.80;2.20;;;;;;;;;;5010422;28;20055;-63
2022/08/26 01:51:08;;;;;;;3.90;1.63;;;;;;;;;;5004958;28;20053;-62
2022/08/26 01:53:35;;;;;;;8.23;2.08;;;;;;;;;;5006836;28;20221;-62
2022/08/26 01:56:03;;;;;;;3.88;1.67;;;;;;;;;;5004684;28;20045;-63
2022/08/26 01:58:32;;;;;;;5.68;1.95;;;;;;;;;;5010827;28;20053;-61
2022/08/26 02:00:59;;;;;;;3.65;1.40;;;;;;;;;;5018399;28;20050;-58
2022/08/26 02:03:27;;;;;;;7.30;2.03;;;;;;;;;;5009088;28;20057;-60
2022/08/26 02:05:57;;;;;;;6.55;1.55;;;;;;;;;;4991611;28;20057;-61
2022/08/26 02:08:26;;;;;;;4.03;1.40;;;;;;;;;;5007005;28;20085;-60
2022/08/26 02:10:54;;;;;;;7.03;1.30;;;;;;;;;;5006888;28;20133;-63
2022/08/26 02:13:21;;;;;;;4.88;1.40;;;;;;;;;;5007480;28;20058;-61
2022/08/26 02:15:49;;;;;;;8.45;1.45;;;;;;;;;;5010888;28;20057;-61
2022/08/26 02:18:16;;;;;;;6.32;1.70;;;;;;;;;;5004216;28;20107;-66
2022/08/26 02:20:42;;;;;;;4.80;1.17;;;;;;;;;;5008166;28;20052;-63
2022/08/26 02:23:09;;;;;;;3.92;1.30;;;;;;;;;;5003976;28;20049;-61
2022/08/26 02:25:41;;;;;;;4.40;1.30;;;;;;;;;;5010814;28;20056;-62
2022/08/26 02:28:09;;;;;;;3.63;1.20;;;;;;;;;;5003969;28;20072;-62
2022/08/26 02:30:39;;;;;;;6.13;1.40;;;;;;;;;;4993580;28;20053;-64
2022/08/26 02:33:07;;;;;;;4.18;1.25;;;;;;;;;;5009859;28;20064;-57
2022/08/26 02:35:34;;;;;;;;;;;;;;;;;;5019055;28;20050;-62
2022/08/26 02:38:01;;;;;;;6.75;1.27;;;;;;;;;;5011169;28;19956;-62
2022/08/26 02:40:29;;;;;;;3.88;1.10;;;;;;;;;;5007932;28;20053;-63
2022/08/26 02:42:55;;;;;;;;;;;;;;;;;;5015175;28;20061;-64
2022/08/26 02:45:22;;;;;;;2.38;0.95;;;;;;;;;;5008663;28;19921;-63
2022/08/26 02:47:49;;;;;;;3.78;1.23;;;;;;;;;;5030922;28;20053;-65
2022/08/26 02:50:19;;;;;;;6.53;1.45;;;;;;;;;;5010637;28;20065;-63
2022/08/26 02:52:47;;;;;;;2.05;1.10;;;;;;;;;;5022717;28;20053;-62
2022/08/26 02:55:14;;;;;;;4.40;1.50;;;;;;;;;;5033952;28;20061;-64
2022/08/26 02:57:41;;;;;;;3.40;1.00;;;;;;;;;;5024607;28;20103;-61
2022/08/26 03:00:09;;;;;;;2.30;0.93;;;;;;;;;;5033007;28;20106;-62
2022/08/26 03:02:36;;;;;;;4.43;1.20;;;;;;;;;;5024563;28;20086;-63
2022/08/26 03:05:02;;;;;;;2.75;1.00;;;;;;;;;;5029690;28;20138;-61
2022/08/26 03:07:30;;;;;;;3.25;1.00;;;;;;;;;;5018198;28;20147;-58
2022/08/26 03:09:58;;;;;;;4.78;1.00;;;;;;;;;;5033653;28;20057;-63
2022/08/26 03:12:24;;;;;;;6.68;1.30;;;;;;;;;;5031622;28;20075;-60
2022/08/26 03:14:51;;;;;;;5.22;1.30;;;;;;;;;;5026595;28;20056;-62
2022/08/26 03:17:17;;;;;;;4.82;0.82;;;;;;;;;;5051148;28;20071;-60
2022/08/26 03:19:44;;;;;;;4.28;1.20;;;;;;;;;;5027192;28;20053;-60
2022/08/26 03:22:11;;;;;;;1.45;0.90;;;;;;;;;;5032966;28;20057;-57
2022/08/26 03:24:39;;;;;;;3.03;1.05;;;;;;;;;;5027430;28;20064;-60
2022/08/26 03:27:05;;;;;;;4.88;1.33;;;;;;;;;;5033489;28;20102;-64
2022/08/26 03:32:16;;;;;;;3.10;1.20;;;;;;;;;;5016357;28;20056;-62
2022/08/26 03:34:43;;;;;;;2.00;0.90;;;;;;;;;;5013591;28;20049;-64
2022/08/26 03:37:09;;;;;;;1.95;0.82;;;;;;;;;;5023221;28;20110;-61
2022/08/26 03:39:36;;;;;;;3.70;0.80;;;;;;;;;;5019994;28;20061;-63
2022/08/26 03:42:05;;;;;;;5.10;1.08;;;;;;;;;;5020602;28;20057;-63
2022/08/26 03:44:32;;;;;;;4.20;1.00;;;;;;;;;;5034137;28;20068;-63
2022/08/26 03:46:59;;;;;;;5.38;1.08;;;;;;;;;;5028497;28;20065;-61
2022/08/26 03:49:26;;;;;;;6.60;0.90;;;;;;;;;;5032467;28;20118;-58
2022/08/26 03:51:52;;;;;;;2.97;0.90;;;;;;;;;;5014634;28;20053;-60
2022/08/26 03:54:19;;;;;;;3.28;0.80;;;;;;;;;;5028876;28;20061;-58
2022/08/26 03:56:46;;;;;;;4.28;1.00;;;;;;;;;;5031741;28;20053;-62
2022/08/26 03:59:14;;;;;;;4.20;1.05;;;;;;;;;;5026520;28;20064;-59
2022/08/26 04:01:41;;;;;;;5.32;0.95;;;;;;;;;;5030107;28;20102;-62
2022/08/26 04:04:08;;;;;;;4.53;0.80;;;;;;;;;;5025730;28;20053;-60
2022/08/26 04:06:35;;;;;;;4.28;1.05;;;;;;;;;;5050281;28;20052;-64
2022/08/26 04:09:04;;;;;;;2.60;0.82;;;;;;;;;;5026409;28;20064;-63
2022/08/26 04:11:34;;;;;;;4.72;1.00;;;;;;;;;;5031654;28;20053;-63
2022/08/26 04:14:01;;;;;;;4.93;1.10;;;;;;;;;;5032509;28;20059;-61
2022/08/26 04:16:31;;;;;;;2.83;0.80;;;;;;;;;;5023858;28;20071;-62
2022/08/26 04:18:57;;;;;;;1.00;0.80;;;;;;;;;;5032691;28;20048;-63
2022/08/26 04:21:24;;;;;;;3.05;0.70;;;;;;;;;;5014689;28;20057;-62
2022/08/26 04:23:51;;;;;;;2.08;0.85;;;;;;;;;;5013539;28;20050;-63
2022/08/26 04:26:19;;;;;;;3.35;0.80;;;;;;;;;;5007194;28;20057;-57
2022/08/26 04:28:46;;;;;;;3.20;1.00;;;;;;;;;;5011440;28;20085;-63
2022/08/26 04:31:13;;;;;;;3.40;0.90;;;;;;;;;;5006910;28;20073;-59
2022/08/26 04:33:42;;;;;;;3.03;0.85;;;;;;;;;;5012349;28;20121;-63
2022/08/26 04:36:09;;;;;;;3.50;0.90;;;;;;;;;;5012674;28;20049;-59
2022/08/26 04:38:36;;;;;;;1.65;0.82;;;;;;;;;;5031661;28;20111;-61
2022/08/26 04:41:04;;;;;;;7.60;0.90;;;;;;;;;;5025581;28;20064;-62
2022/08/26 04:43:30;;;;;;;;;;;;;;;;;;5032844;28;20052;-59
2022/08/26 04:45:58;;;;;;;2.65;0.68;;;;;;;;;;5024883;28;19955;-61
2022/08/26 04:48:25;;;;;;;1.77;0.60;;;;;;;;;;5031589;28;20067;-64
2022/08/26 04:50:53;;;;;;;2.65;0.77;;;;;;;;;;5030667;28;20045;-62
2022/08/26 04:53:20;;;;;;;;;;;;;;;;;;5006459;28;20056;-63
2022/08/26 04:55:46;;;;;;;3.70;0.70;;;;;;;;;;5010965;28;19921;-61
2022/08/26 04:58:14;;;;;;;3.92;1.25;;;;;;;;;;5005510;28;20053;-58
2022/08/26 05:00:42;;;;;;;;;;;;;;;;;;5028241;28;20042;-63
2022/08/26 05:03:08;;;;;;;3.67;0.70;;;;;;;;;;5021972;28;19929;-60
2022/08/26 05:05:37;;;;;;;5.10;0.90;;;;;;;;;;5011254;28;20052;-63
2022/08/26 05:08:05;;;;;;;3.47;0.70;;;;;;;;;;4994054;28;20056;-63
2022/08/26 05:10:33;;;;;;;5.68;0.90;;;;;;;;;;4992169;28;20104;-63
2022/08/26 05:13:02;;;;;;;8.05;1.00;;;;;;;;;;4995568;28;20057;-63
2022/08/26 05:15:28;;;;;;;7.93;1.05;;;;;;;;;;5010704;28;20045;-59
2022/08/26 05:17:57;;;;;;;5.38;0.80;;;;;;;;;;5004170;28;20057;-63
2022/08/26 05:20:25;;;;;;;4.40;0.75;;;;;;;;;;5011343;28;20100;-61
2022/08/26 05:22:52;;;;;;;2.97;0.65;;;;;;;;;;5021955;28;20049;-63
2022/08/26 05:25:20;;;;;;;1.17;0.60;;;;;;;;;;5012272;28;20069;-62
2022/08/26 05:27:46;;;;;;;5.65;0.95;;;;;;;;;;5003147;28;20049;-63
2022/08/26 05:30:20;;;;;;;5.03;0.82;;;;;;;;;;5010993;28;20057;-64
2022/08/26 05:32:47;;;;;;;4.40;0.65;;;;;;;;;;4988163;28;20054;-63
2022/08/26 05:35:14;;;;;;;7.82;0.90;;;;;;;;;;5011253;28;20069;-58
2022/08/26 05:37:41;;;;;;;3.05;0.80;;;;;;;;;;5010799;28;20073;-63
2022/08/26 05:40:09;;;;;;;4.57;0.90;;;;;;;;;;4987229;28;20058;-62
2022/08/26 05:42:37;;;;;;;3.38;0.60;;;;;;;;;;4991023;28;20057;-61
2022/08/26 05:45:04;;;;;;;1.75;0.60;;;;;;;;;;5001738;28;20054;-61
2022/08/26 05:47:31;;;;;;;3.13;0.83;;;;;;;;;;5009996;28;20087;-61
2022/08/26 05:49:57;;;;;;;6.68;0.98;;;;;;;;;;5004054;28;20088;-59
2022/08/26 05:52:24;;;;;;;2.20;0.70;;;;;;;;;;5018878;28;20056;-64
2022/08/26 05:54:51;;;;;;;4.20;0.85;;;;;;;;;;5013599;28;20059;-64
2022/08/26 05:57:17;;;;;;;6.43;1.08;;;;;;;;;;5010425;28;20085;-62
2022/08/26 05:59:47;;;;;;;10.15;1.02;;;;;;;;;;5010908;28;20053;-60
2022/08/26 06:02:13;;;;;;;4.38;0.80;;;;;;;;;;5027192;28;20053;-53
2022/08/26 06:04:40;;;;;;;2.55;0.75;;;;;;;;;;5020436;28;20060;-49
2022/08/26 06:07:07;;;;;;;2.40;1.00;;;;;;;;;;5027137;28;20054;-54
2022/08/26 06:09:36;;;;;;;2.10;0.80;;;;;;;;;;5019121;28;20060;-54
2022/08/26 06:12:04;;;;;;;1.45;0.70;;;;;;;;;;5009802;28;20049;-58
2022/08/26 06:14:30;;;;;;;6.20;0.88;;;;;;;;;;5009183;28;20175;-58
2022/08/26 06:16:59;;;;;;;5.40;0.93;;;;;;;;;;5016134;28;20052;-57
2022/08/26 06:19:26;;;;;;;1.83;0.77;;;;;;;;;;5011738;28;20052;-57
2022/08/26 06:21:53;;;;;;;4.22;0.90;;;;;;;;;;5015379;28;20056;-57
2022/08/26 06:27:04;;;;;;;3.42;0.95;;;;;;;;;;4975678;28;20054;-57
2022/08/26 06:29:33;;;;;;;7.40;1.30;;;;;;;;;;5015204;28;20051;-56
2022/08/26 06:32:02;;;;;;;3.65;1.05;;;;;;;;;;5015391;28;20060;-60
2022/08/26 06:34:29;;;;;;;3.28;1.00;;;;;;;;;;5022067;28;20049;-60
2022/08/26 06:36:56;;;;;;;5.28;0.95;;;;;;;;;;5009342;28;20057;-59
2022/08/26 06:39:23;;;;;;;3.55;0.65;;;;;;;;;;5021376;28;20257;-56
2022/08/26 06:41:50;;;;;;;3.97;1.17;;;;;;;;;;5012236;28;20115;-61
2022/08/26 06:44:17;;;;;;;4.53;0.80;;;;;;;;;;5015122;28;20132;-59
2022/08/26 06:46:44;;;;;;;7.00;1.00;;;;;;;;;;5006579;28;20052;-58
2022/08/26 06:49:12;;;;;;;2.67;0.70;;;;;;;;;;5018353;28;20146;-58
2022/08/26 06:51:40;;;;;;;3.05;0.85;;;;;;;;;;4989956;28;20068;-58
2022/08/26 06:54:06;;;;;;;5.68;0.90;;;;;;;;;;5023234;28;20056;-57
2022/08/26 06:56:34;;;;;;;4.30;1.15;;;;;;;;;;5020930;28;20045;-60
2022/08/26 06:59:01;;;;;;;8.13;0.95;;;;;;;;;;5014643;28;20056;-59
2022/08/26 07:01:29;;;;;;;5.10;1.00;;;;;;;;;;5005274;28;20063;-62
2022/08/26 07:03:57;;;;;;;4.38;0.85;;;;;;;;;;5011706;28;20041;-60
2022/08/26 07:06:26;;;;;;;2.75;0.82;;;;;;;;;;5011906;28;20056;-63
2022/08/26 07:08:54;;;;;;;2.70;0.90;;;;;;;;;;5024387;28;20131;-62
2022/08/26 07:11:21;;;;;;;4.35;1.33;;;;;;;;;;5015880;28;20104;-62
2022/08/26 07:13:50;;;;;;;3.50;0.80;;;;;;;;;;5021725;28;20055;-63
2022/08/26 07:16:17;;;;;;;3.05;0.80;;;;;;;;;;5029511;28;20087;-63
2022/08/26 07:18:44;;;;;;;4.13;1.00;;;;;;;;;;5023402;28;20062;-57
2022/08/26 07:21:12;;;;;;;3.83;0.90;;;;;;;;;;5047793;28;20056;-56
2022/08/26 07:23:38;;;;;;;;;;;;;;;;;;5023479;28;20072;-53
2022/08/26 07:26:07;;;;;;;4.93;1.10;;;;;;;;;;5031936;28;20005;-51
2022/08/26 07:28:34;;;;;;;3.47;0.68;;;;;;;;;;5029162;28;20053;-55
2022/08/26 07:31:03;;;;;;;6.57;1.17;;;;;;;;;;5023873;28;20061;-55
2022/08/26 07:33:31;;;;;;;3.50;0.75;;;;;;;;;;5013678;28;20053;-56
2022/08/26 07:35:57;;;;;;;5.10;1.58;;;;;;;;;;5024971;28;20124;-63
2022/08/26 07:38:24;;;;;;;2.17;0.73;;;;;;;;;;5051053;28;20115;-63
2022/08/26 07:40:50;;;;;;;5.30;1.00;;;;;;;;;;5022594;28;20044;-62
2022/08/26 07:43:18;;;;;;;1.50;0.70;;;;;;;;;;5033027;28;20052;-58
2022/08/26 07:45:45;;;;;;;5.72;1.10;;;;;;;;;;5026073;28;20082;-58
2022/08/26 07:48:12;;;;;;;6.60;0.73;;;;;;;;;;5033177;28;20052;-58
2022/08/26 07:50:40;;;;;;;4.85;0.93;;;;;;;;;;5029677;28;20049;-60
2022/08/26 07:53:07;;;;;;;9.80;1.65;;;;;;;;;;5026016;28;20132;-59
2022/08/26 07:55:33;;;;;;;4.95;1.02;;;;;;;;;;5032155;28;20053;-63
2022/08/26 07:58:01;;;;;;;2.45;0.82;;;;;;;;;;5026225;28;20063;-63
2022/08/26 08:00:31;;;;;;;4.33;0.90;;;;;;;;;;5032617;28;20067;-56
2022/08/26 08:02:58;;;;;;;2.00;0.65;;;;;;;;;;5025817;28;20076;-63
2022/08/26 08:05:25;;;;;;;5.97;0.95;;;;;;;;;;5032703;28;20053;-63
2022/08/26 08:07:52;;;;;;;2.38;0.77;;;;;;;;;;5027530;28;20053;-63
2022/08/26 08:10:20;;;;;;;6.15;1.00;;;;;;;;;;5029389;28;20080;-62
2022/08/26 08:12:47;;;;;;;3.25;0.55;;;;;;;;;;5031302;28;20048;-58
2022/08/26 08:15:16;;;;;;;3.05;0.63;;;;;;;;;;5010353;28;20060;-63
2022/08/26 08:17:44;;;;;;;9.65;1.05;;;;;;;;;;5011031;28;20050;-60
2022/08/26 08:20:13;;;;;;;4.38;0.80;;;;;;;;;;5016846;28;20057;-61
2022/08/26 08:22:40;;;;;;;4.28;0.90;;;;;;;;;;5031115;28;20053;-63
2022/08/26 08:25:07;;;;;;;4.07;0.80;;;;;;;;;;5020485;28;20045;-63
2022/08/26 08:27:34;;;;;;;3.22;0.80;;;;;;;;;;5010748;28;20049;-63
2022/08/26 08:30:01;;;;;;;3.55;0.70;;;;;;;;;;5011230;28;20049;-61
2022/08/26 08:32:28;;;;;;;2.97;0.70;;;;;;;;;;5012538;28;20053;-63
2022/08/26 08:34:57;;;;;;;1.70;0.70;;;;;;;;;;5024002;28;20138;-61
2022/08/26 08:37:24;;;;;;;2.70;1.00;;;;;;;;;;5043874;28;20057;-62
2022/08/26 08:39:51;;;;;;;9.07;1.00;;;;;;;;;;5022835;28;20084;-61
2022/08/26 08:42:32;;;;;;;3.63;0.80;;;;;;;;;;5029026;28;20056;-62
2022/08/26 08:45:02;;;;;;;3.42;0.98;;;;;;;;;;5030302;28;20152;-63
2022/08/26 08:47:31;;;;;;;5.82;0.90;;;;;;;;;;5007346;28;20141;-60
2022/08/26 08:50:02;;;;;;;5.75;1.35;;;;;;;;;;5011447;28;20132;-61
2022/08/26 08:52:32;;;;;;;4.03;0.88;;;;;;;;;;5003139;28;20132;-62
2022/08/26 08:54:58;;;;;;;3.47;0.82;;;;;;;;;;5008571;28;20057;-58
2022/08/26 08:57:30;;;;;;;1.55;0.65;;;;;;;;;;5004271;28;20045;-62
2022/08/26 09:00:01;;;;;;;4.10;0.82;;;;;;;;;;5009045;28;20049;-59
2022/08/26 09:02:32;;;;;;;3.13;0.60;;;;;;;;;;5003967;28;20061;-60
2022/08/26 09:05:12;;;;;;;2.30;0.77;;;;;;;;;;4995215;28;20891;-63
2022/08/26 09:07:40;;;;;;;4.25;0.95;;;;;;;;;;5006026;28;20056;-61
2022/08/26 09:10:18;;;;;;;3.30;0.90;;;;;;;;;;5009820;28;20061;-60
2022/08/26 09:12:45;;;;;;;8.10;0.75;;;;;;;;;;5005814;28;20133;-62
2022/08/26 09:15:17;;;;;;;1.75;0.63;;;;;;;;;;5011048;28;20158;-61
2022/08/26 09:17:51;;;;;;;3.58;0.80;;;;;;;;;;5005693;28;20064;-61
2022/08/26 09:20:34;;;;;;;6.53;1.15;;;;;;;;;;5011809;28;20116;-61
2022/08/26 09:23:00;;;;;;;3.83;0.90;;;;;;;;;;5005706;28;20057;-59
2022/08/26 09:25:27;;;;;;;2.03;0.60;;;;;;;;;;4992225;28;20059;-62
2022/08/26 09:27:54;;;;;;;7.85;0.75;;;;;;;;;;4991549;28;20081;-61
2022/08/26 09:30:23;;;;;;;3.00;0.80;;;;;;;;;;5021719;28;20180;-56
2022/08/26 09:32:57;;;;;;;2.22;0.60;;;;;;;;;;5027170;28;20072;-61
2022/08/26 09:35:27;;;;;;;7.05;0.75;;;;;;;;;;5018843;28;20137;-62
2022/08/26 09:37:53;;;;;;;2.88;0.70;;;;;;;;;;5026175;28;20053;-61
2022/08/26 09:40:25;;;;;;;2.85;0.68;;;;;;;;;;5020014;28;20053;-63
2022/08/26 09:53:29;;;;;;;11.35;1.17;;;;;;;;;;607873;23;20301;-56
2022/08/26 09:56:11;;;;;;;1.95;0.70;;;;;;;;;;5045704;28;20040;-60
2022/08/26 09:58:41;;;;;;;10.70;1.40;;;;;;;;;;5027247;28;20056;-61
2022/08/26 10:01:14;;;;;;;4.13;0.90;;;;;;;;;;5026205;28;20068;-60
2022/08/26 10:03:41;;;;;;;17.80;1.50;;;;;;;;;;5041490;28;20057;-59
2022/08/26 10:06:20;;;;;;;5.07;1.15;;;;;;;;;;5028690;28;20060;-60
2022/08/26 10:08:47;;;;;;;5.85;1.42;;;;;;;;;;5024795;28;20103;-60
2022/08/26 10:11:17;;;;;;;9.35;1.00;;;;;;;;;;5030316;28;20056;-61
2022/08/26 10:13:47;;;;;;;6.38;1.27;;;;;;;;;;5025635;28;20052;-60
2022/08/26 10:16:16;;;;;;;5.38;0.88;;;;;;;;;;5030659;28;20095;-61
2022/08/26 10:18:46;;;;;;;6.93;1.27;;;;;;;;;;5026690;28;20064;-60
2022/08/26 10:21:15;;;;;;;15.23;1.35;;;;;;;;;;5030485;28;20144;-62
2022/08/26 10:23:43;;;;;;;7.43;1.25;;;;;;;;;;5030274;28;20051;-61
2022/08/26 10:26:12;;;;;;;4.70;1.05;;;;;;;;;;5025330;28;20056;-62
2022/08/26 10:28:41;;;;;;;5.22;0.90;;;;;;;;;;5030090;28;20052;-60
2022/08/26 10:31:18;;;;;;;4.20;0.77;;;;;;;;;;5017904;28;20057;-61
2022/08/26 10:33:44;;;;;;;4.40;1.08;;;;;;;;;;5010552;28;20053;-63
2022/08/26 10:36:47;;;;;;;3.10;0.98;;;;;;;;;;5013986;28;20049;-60
2022/08/26 10:39:03;;;;;;;4.47;1.30;;;;;;;;;;5028460;28;20052;-61
2022/08/26 10:41:32;;;;;;;8.88;1.17;;;;;;;;;;5024481;28;20072;-60
2022/08/26 10:44:00;;;;;;;5.68;1.33;;;;;;;;;;5030322;28;20044;-60
2022/08/26 10:46:38;;;;;;;2.27;0.77;;;;;;;;;;5027382;28;20138;-64
2022/08/26 10:49:04;;;;;;;;;;;;;;;;;;5028844;28;20295;-60
2022/08/26 10:51:35;;;;;;;6.20;1.02;;;;;;;;;;5030323;28;19984;-61
2022/08/26 10:54:04;;;;;;;3.20;0.85;;;;;;;;;;5024963;28;20056;-62
2022/08/26 10:56:38;;;;;;;5.30;0.88;;;;;;;;;;5029782;28;20045;-61
2022/08/26 10:59:09;;;;;;;5.40;1.10;;;;;;;;;;5023929;28;20080;-60
2022/08/26 11:01:43;;;;;;;4.43;0.88;;;;;;;;;;5020878;28;20057;-62
2022/08/26 11:04:14;;;;;;;6.97;0.90;;;;;;;;;;5003881;28;20081;-60
2022/08/26 11:06:44;;;;;;;6.68;0.80;;;;;;;;;;4997955;28;20144;-60
2022/08/26 11:09:11;;;;;;;3.90;0.77;;;;;;;;;;5019684;28;20054;-61
2022/08/26 11:11:46;;;;;;;2.20;0.80;;;;;;;;;;5016481;28;20061;-60
2022/08/26 11:14:27;;;;;;;5.93;1.00;;;;;;;;;;5011237;28;20053;-60
2022/08/26 11:16:56;;;;;;;6.07;0.80;;;;;;;;;;5026923;28;20104;-59
2022/08/26 11:19:38;;;;;;;4.07;0.75;;;;;;;;;;4997529;28;20051;-59
2022/08/26 11:22:08;;;;;;;5.93;0.80;;;;;;;;;;5002922;28;20061;-59
2022/08/26 11:25:00;;;;;;;4.13;0.70;;;;;;;;;;5028075;28;20111;-61
2022/08/26 11:27:45;;;;;;;3.88;0.75;;;;;;;;;;5024932;28;20053;-59
2022/08/26 11:30:28;;;;;;;1.90;0.60;;;;;;;;;;5029603;28;20064;-59
2022/08/26 11:32:57;;;;;;;4.72;0.80;;;;;;;;;;5024486;28;20057;-60
2022/08/26 11:35:41;;;;;;;3.92;0.80;;;;;;;;;;5045617;28;20049;-59
2022/08/26 11:38:15;;;;;;;4.95;0.80;;;;;;;;;;5008059;28;20119;-60
2022/08/26 11:40:42;;;;;;;2.85;0.70;;;;;;;;;;5044902;28;20136;-60
2022/08/26 11:43:18;;;;;;;2.83;0.80;;;;;;;;;;5031433;28;20073;-61
2022/08/26 11:45:46;;;;;;;2.67;0.70;;;;;;;;;;5056820;28;20068;-62
2022/08/26 11:48:12;;;;;;;;;;;;;;;;;;5025724;28;20053;-59
2022/08/26 11:50:54;;;;;;;1.98;0.50;;;;;;;;;;5011962;28;19925;-59
2022/08/26 11:53:21;;;;;;;3.60;0.70;;;;;;;;;;5012732;28;20061;-60
2022/08/26 11:55:49;;;;;;;4.25;0.77;;;;;;;;;;5025956;28;20148;-60
2022/08/26 11:58:16;;;;;;;4.90;0.60;;;;;;;;;;5051183;28;20048;-60
2022/08/26 12:00:50;;;;;;;3.92;0.63;;;;;;;;;;5013602;28;20080;-60
2022/08/26 12:03:18;;;;;;;5.82;0.73;;;;;;;;;;5025341;28;20069;-59
2022/08/26 12:05:46;;;;;;;4.40;0.90;;;;;;;;;;5004311;28;20076;-59
2022/08/26 12:08:17;;;;;;;4.15;0.80;;;;;;;;;;5028801;28;20050;-60
2022/08/26 12:10:44;;;;;;;3.60;0.82;;;;;;;;;;5011705;28;20112;-59
2022/08/26 12:13:19;;;;;;;6.13;0.80;;;;;;;;;;5027958;28;20049;-60
2022/08/26 12:15:52;;;;;;;3.10;0.70;;;;;;;;;;5008747;28;20049;-60
2022/08/26 12:18:20;;;;;;;2.60;0.63;;;;;;;;;;5031562;28;20052;-59
2022/08/26 12:20:52;;;;;;;4.90;0.90;;;;;;;;;;5029905;28;20115;-59
2022/08/26 12:23:25;;;;;;;2.92;1.00;;;;;;;;;;5040266;28;20106;-59
2022/08/26 12:25:53;;;;;;;2.88;0.90;;;;;;;;;;5032526;28;20056;-59
2022/08/26 12:28:20;;;;;;;1.15;0.60;;;;;;;;;;5013829;28;20514;-59
2022/08/26 12:31:03;;;;;;;1.08;0.55;;;;;;;;;;4999279;28;20053;-60
2022/08/26 12:33:30;;;;;;;5.68;0.75;;;;;;;;;;5000745;28;20052;-59
2022/08/26 12:35:59;;;;;;;2.22;0.65;;;;;;;;;;5011146;28;20045;-59
2022/08/26 12:38:27;;;;;;;5.72;1.05;;;;;;;;;;5008481;28;20061;-59
2022/08/26 12:40:56;;;;;;;4.03;0.65;;;;;;;;;;5012311;28;20072;-60
2022/08/26 12:43:37;;;;;;;2.83;0.73;;;;;;;;;;5012585;28;20049;-60
2022/08/26 12:46:04;;;;;;;3.58;0.63;;;;;;;;;;5011083;28;20132;-59
2022/08/26 12:48:33;;;;;;;2.10;0.47;;;;;;;;;;5011389;28;20080;-60
2022/08/26 12:51:00;;;;;;;2.63;0.80;;;;;;;;;;5007170;28;20080;-60
2022/08/26 12:53:30;;;;;;;6.22;1.13;;;;;;;;;;5012103;28;20053;-59
2022/08/26 12:55:59;;;;;;;9.13;0.80;;;;;;;;;;5022421;28;20049;-59
2022/08/26 12:58:27;;;;;;;2.42;0.50;;;;;;;;;;5026857;28;20056;-60
2022/08/26 13:00:56;;;;;;;2.20;0.52;;;;;;;;;;5021611;28;20064;-60
2022/08/26 13:03:47;;;;;;;1.95;0.70;;;;;;;;;;5028042;28;20053;-58
2022/08/26 13:06:15;;;;;;;1.92;0.65;;;;;;;;;;5003677;28;20056;-59
2022/08/26 13:08:44;;;;;;;5.75;0.63;;;;;;;;;;5008509;28;20060;-61
2022/08/26 13:11:12;;;;;;;1.98;0.57;;;;;;;;;;5004311;28;20049;-60
2022/08/26 13:13:39;;;;;;;3.65;0.70;;;;;;;;;;5025389;28;20060;-60
2022/08/26 13:16:06;;;;;;;5.00;0.75;;;;;;;;;;5027265;28;20081;-61
2022/08/26 13:18:33;;;;;;;2.13;0.43;;;;;;;;;;5021509;28;20060;-60
2022/08/26 13:21:00;;;;;;;2.95;0.55;;;;;;;;;;5027518;28;20064;-61
2022/08/26 13:23:26;;;;;;;3.92;0.63;;;;;;;;;;5021785;28;20053;-59
2022/08/26 13:25:54;;;;;;;4.20;0.50;;;;;;;;;;5026632;28;20045;-59
2022/08/26 13:28:21;;;;;;;1.45;0.45;;;;;;;;;;5021508;28;20045;-60
2022/08/26 13:30:48;;;;;;;4.90;0.50;;;;;;;;;;5026504;28;20047;-59
2022/08/26 13:33:15;;;;;;;1.88;0.40;;;;;;;;;;5027900;28;21606;-60
2022/08/26 13:35:42;;;;;;;1.98;0.50;;;;;;;;;;5021523;28;20133;-59
2022/08/26 13:38:13;;;;;;;2.85;0.60;;;;;;;;;;5027634;28;20135;-60
2022/08/26 13:40:41;;;;;;;1.83;0.73;;;;;;;;;;5021040;28;20136;-60
2022/08/26 13:43:08;;;;;;;1.10;0.60;;;;;;;;;;5026856;28;20062;-59
2022/08/26 13:45:35;;;;;;;1.13;0.50;;;;;;;;;;5023513;28;20092;-60
2022/08/26 13:48:02;;;;;;;2.53;0.55;;;;;;;;;;5026787;28;20053;-60
2022/08/26 13:50:28;;;;;;;1.92;0.60;;;;;;;;;;5023959;28;20059;-60
2022/08/26 13:52:55;;;;;;;2.03;0.50;;;;;;;;;;5024782;28;20045;-59
2022/08/26 13:55:22;;;;;;;0.82;0.57;;;;;;;;;;5045395;28;20080;-60
2022/08/26 13:57:48;;;;;;;1.60;0.40;;;;;;;;;;5044226;28;20063;-60
2022/08/26 14:00:18;;;;;;;1.55;0.50;;;;;;;;;;5050186;28;20052;-63
2022/08/26 14:02:44;;;;;;;5.07;0.60;;;;;;;;;;5045470;28;20059;-63
2022/08/26 14:05:12;;;;;;;2.55;0.60;;;;;;;;;;5052646;28;20071;-63
2022/08/26 14:07:39;;;;;;;6.07;0.73;;;;;;;;;;5046936;28;20068;-64
2022/08/26 14:10:10;;;;;;;5.70;0.93;;;;;;;;;;5049919;28;20056;-63
2022/08/26 14:12:38;;;;;;;9.10;0.85;;;;;;;;;;5050638;28;20052;-63
2022/08/26 14:15:04;;;;;;;;;;;;;;;;;;5041294;28;20056;-63
2022/08/26 14:17:32;;;;;;;3.78;0.82;;;;;;;;;;5048741;28;19928;-64
2022/08/26 14:19:59;;;;;;;4.80;0.73;;;;;;;;;;5040005;28;20116;-63
2022/08/26 14:22:30;;;;;;;3.83;0.50;;;;;;;;;;5049314;28;20064;-64
2022/08/26 14:24:56;;;;;;;1.08;0.60;;;;;;;;;;5043412;28;20040;-63
2022/08/26 14:27:24;;;;;;;8.73;1.23;;;;;;;;;;5048658;28;20061;-63
2022/08/26 14:29:51;;;;;;;6.90;0.82;;;;;;;;;;5042263;28;20056;-64
2022/08/26 14:32:21;;;;;;;0.77;0.50;;;;;;;;;;5047657;28;20131;-64
2022/08/26 14:34:49;;;;;;;2.60;0.68;;;;;;;;;;5044450;28;20067;-64
2022/08/26 14:37:16;;;;;;;;;;;;;;;;;;5052206;28;20057;-63
2022/08/26 14:39:43;;;;;;;10.75;0.93;;;;;;;;;;5047383;28;19924;-62
2022/08/26 14:42:10;;;;;;;3.75;0.60;;;;;;;;;;5050163;28;20187;-62
2022/08/26 14:44:36;;;;;;;5.07;0.80;;;;;;;;;;5051920;28;20049;-63
2022/08/26 14:47:07;;;;;;;4.03;1.00;;;;;;;;;;5046273;28;20053;-64
2022/08/26 14:49:35;;;;;;;3.97;0.90;;;;;;;;;;5052488;28;20078;-61
2022/08/26 14:52:03;;;;;;;5.00;0.77;;;;;;;;;;5045082;28;20134;-59
2022/08/26 14:54:29;;;;;;;2.35;1.00;;;;;;;;;;5066344;28;20080;-62
2022/08/26 14:56:57;;;;;;;1.05;0.65;;;;;;;;;;5046362;28;20126;-63
2022/08/26 14:59:27;;;;;;;3.53;0.80;;;;;;;;;;5051925;28;20063;-64
2022/08/26 15:01:54;;;;;;;3.05;0.82;;;;;;;;;;5044652;28;20057;-63
2022/08/26 15:04:21;;;;;;;2.45;0.70;;;;;;;;;;5050647;28;20080;-61
2022/08/26 15:06:48;;;;;;;3.75;0.80;;;;;;;;;;5047540;28;20094;-60
2022/08/26 15:09:16;;;;;;;3.28;0.70;;;;;;;;;;5052448;28;20040;-61
2022/08/26 15:11:43;;;;;;;3.70;0.95;;;;;;;;;;5061014;28;20056;-63